Time,TemperatureF,DewpointF,PressureIn,WindDirection,WindDirectionDegrees,WindSpeedMPH,WindSpeedGustMPH,Humidity,HourlyPrecipIn,Conditions,Clouds,dailyrainin,SolarRadiationWatts/m^2,SoftwareType,DateUTC
2013-10-10 00:00:00,49.0,45.0,-100.00,SE,135,3.0,-999.0,86,-99.99,,,-99.99,0.000000,,2013-10-10 04:00:00,
2013-10-10 00:54:00,49.0,45.0,-100.00,SE,135,3.0,-999.0,86,-99.99,,,-99.99,0.000000,,2013-10-10 04:54:00,
2013-10-10 01:00:00,49.0,44.0,-100.00,SE,135,3.0,-999.0,81,-99.99,,,-99.99,0.000000,,2013-10-10 05:00:00,
2013-10-10 01:43:00,49.0,44.0,-100.00,SE,135,3.0,-999.0,81,-99.99,,,-99.99,0.000000,,2013-10-10 05:43:00,
2013-10-10 01:53:00,49.0,44.0,-100.00,SE,135,3.0,-999.0,81,-99.99,,,-99.99,0.000000,,2013-10-10 05:53:00,
2013-10-10 02:00:00,48.0,43.0,-100.00,SE,135,3.0,-999.0,83,-99.99,,,-99.99,0.000000,,2013-10-10 06:00:00,
2013-10-10 02:43:00,48.0,43.0,-100.00,SE,135,3.0,-999.0,83,-99.99,,,-99.99,0.000000,,2013-10-10 06:43:00,
2013-10-10 02:53:00,48.0,43.0,-100.00,SE,135,3.0,-999.0,83,-99.99,,,-99.99,0.000000,,2013-10-10 06:53:00,
2013-10-10 03:00:00,47.0,43.0,-100.00,SE,135,2.0,-999.0,84,-99.99,,,-99.99,0.000000,,2013-10-10 07:00:00,
2013-10-10 03:42:00,47.0,43.0,-100.00,SE,135,2.0,-999.0,84,-99.99,,,-99.99,0.000000,,2013-10-10 07:42:00,
2013-10-10 03:52:00,47.0,43.0,-100.00,SE,135,2.0,-999.0,84,-99.99,,,-99.99,0.000000,,2013-10-10 07:52:00,
2013-10-10 04:00:00,46.0,43.0,-100.00,ESE,112,1.0,-999.0,86,-99.99,,,-99.99,0.000000,,2013-10-10 08:00:00,
2013-10-10 04:43:00,46.0,43.0,-100.00,ESE,112,1.0,-999.0,86,-99.99,,,-99.99,0.000000,,2013-10-10 08:43:00,
2013-10-10 04:52:00,46.0,43.0,-100.00,ESE,112,1.0,-999.0,86,-99.99,,,-99.99,0.000000,,2013-10-10 08:52:00,
2013-10-10 05:00:00,46.0,43.0,-100.00,ESE,112,1.0,-999.0,88,-99.99,,,-99.99,0.000000,,2013-10-10 09:00:00,
2013-10-10 05:43:00,46.0,43.0,-100.00,ESE,112,1.0,-999.0,88,-99.99,,,-99.99,0.000000,,2013-10-10 09:43:00,
2013-10-10 05:53:00,46.0,43.0,-100.00,ESE,112,1.0,-999.0,88,-99.99,,,-99.99,0.000000,,2013-10-10 09:53:00,
2013-10-10 06:00:00,46.0,43.0,-100.00,SE,135,2.0,-999.0,90,-99.99,,,-99.99,0.000000,,2013-10-10 10:00:00,
2013-10-10 06:43:00,46.0,43.0,-100.00,SE,135,2.0,-999.0,90,-99.99,,,-99.99,0.000000,,2013-10-10 10:43:00,
2013-10-10 06:53:00,46.0,43.0,-100.00,SE,135,2.0,-999.0,90,-99.99,,,-99.99,0.000000,,2013-10-10 10:53:00,
2013-10-10 07:00:00,45.0,43.0,-100.00,SSE,157,4.0,-999.0,91,-99.99,,,-99.99,0.000000,,2013-10-10 11:00:00,
2013-10-10 07:42:00,45.0,43.0,-100.00,SSE,157,4.0,-999.0,91,-99.99,,,-99.99,0.000000,,2013-10-10 11:42:00,
2013-10-10 07:56:00,45.0,43.0,-100.00,SSE,157,4.0,-999.0,91,-99.99,,,-99.99,0.000000,,2013-10-10 11:56:00,
2013-10-10 08:00:00,45.0,43.0,-100.00,SSE,157,4.0,-999.0,92,-99.99,,,-99.99,1.160000,,2013-10-10 12:00:00,
2013-10-10 08:42:00,45.0,43.0,-100.00,SSE,157,4.0,-999.0,92,-99.99,,,-99.99,1.160000,,2013-10-10 12:42:00,
2013-10-10 08:52:00,45.0,43.0,-100.00,SSE,157,4.0,-999.0,92,-99.99,,,-99.99,1.160000,,2013-10-10 12:52:00,
2013-10-10 09:00:00,48.0,45.0,-100.00,SSE,157,4.0,-999.0,90,-99.99,,,-99.99,78.879997,,2013-10-10 13:00:00,
2013-10-10 09:42:00,48.0,45.0,-100.00,SSE,157,4.0,-999.0,90,-99.99,,,-99.99,78.879997,,2013-10-10 13:42:00,
2013-10-10 09:52:00,48.0,45.0,-100.00,SSE,157,4.0,-999.0,90,-99.99,,,-99.99,78.879997,,2013-10-10 13:52:00,
2013-10-10 10:00:00,54.0,48.0,-100.00,South,180,4.0,-999.0,80,-99.99,,,-99.99,236.639999,,2013-10-10 14:00:00,
2013-10-10 10:42:00,54.0,48.0,-100.00,South,180,4.0,-999.0,80,-99.99,,,-99.99,236.639999,,2013-10-10 14:42:00,
2013-10-10 10:52:00,54.0,48.0,-100.00,South,180,4.0,-999.0,80,-99.99,,,-99.99,236.639999,,2013-10-10 14:52:00,
2013-10-10 11:00:00,61.0,49.0,-100.00,SW,225,2.0,-999.0,65,-99.99,,,-99.99,392.079987,,2013-10-10 15:00:00,
2013-10-10 11:43:00,61.0,49.0,-100.00,SW,225,2.0,-999.0,65,-99.99,,,-99.99,392.079987,,2013-10-10 15:43:00,
2013-10-10 11:54:00,61.0,49.0,-100.00,SW,225,2.0,-999.0,65,-99.99,,,-99.99,392.079987,,2013-10-10 15:54:00,
2013-10-10 12:00:00,67.0,50.0,-100.00,WSW,247,1.0,-999.0,54,-99.99,,,-99.99,522.000000,,2013-10-10 16:00:00,
2013-10-10 12:42:00,67.0,50.0,-100.00,WSW,247,1.0,-999.0,54,-99.99,,,-99.99,522.000000,,2013-10-10 16:42:00,
2013-10-10 12:53:00,67.0,50.0,-100.00,WSW,247,1.0,-999.0,54,-99.99,,,-99.99,522.000000,,2013-10-10 16:53:00,
2013-10-10 13:00:00,72.0,50.0,-100.00,WSW,247,2.0,-999.0,46,-99.99,,,-99.99,605.520020,,2013-10-10 17:00:00,
2013-10-10 13:42:00,72.0,50.0,-100.00,WSW,247,2.0,-999.0,46,-99.99,,,-99.99,605.520020,,2013-10-10 17:42:00,
2013-10-10 13:53:00,72.0,50.0,-100.00,WSW,247,2.0,-999.0,46,-99.99,,,-99.99,605.520020,,2013-10-10 17:53:00,
2013-10-10 14:00:00,74.0,47.0,-100.00,South,180,3.0,-999.0,38,-99.99,,,-99.99,632.200012,,2013-10-10 18:00:00,
2013-10-10 14:42:00,74.0,47.0,-100.00,South,180,3.0,-999.0,38,-99.99,,,-99.99,632.200012,,2013-10-10 18:42:00,
2013-10-10 14:52:00,74.0,47.0,-100.00,South,180,3.0,-999.0,38,-99.99,,,-99.99,632.200012,,2013-10-10 18:52:00,
2013-10-10 15:00:00,74.0,45.0,-100.00,SSW,202,4.0,-999.0,35,-99.99,,,-99.99,605.520020,,2013-10-10 19:00:00,
2013-10-10 15:42:00,74.0,45.0,-100.00,SSW,202,4.0,-999.0,35,-99.99,,,-99.99,605.520020,,2013-10-10 19:42:00,
2013-10-10 15:53:00,74.0,45.0,-100.00,SSW,202,4.0,-999.0,35,-99.99,,,-99.99,605.520020,,2013-10-10 19:53:00,
2013-10-10 16:00:00,75.0,46.0,-100.00,South,180,4.0,-999.0,35,-99.99,,,-99.99,523.159973,,2013-10-10 20:00:00,
2013-10-10 16:42:00,75.0,46.0,-100.00,South,180,4.0,-999.0,35,-99.99,,,-99.99,523.159973,,2013-10-10 20:42:00,
2013-10-10 16:52:00,75.0,46.0,-100.00,South,180,4.0,-999.0,35,-99.99,,,-99.99,523.159973,,2013-10-10 20:52:00,
2013-10-10 17:00:00,76.0,48.0,-100.00,North,0,3.0,-999.0,37,-99.99,,,-99.99,390.920013,,2013-10-10 21:00:00,
2013-10-10 17:44:00,76.0,48.0,-100.00,North,0,3.0,-999.0,37,-99.99,,,-99.99,390.920013,,2013-10-10 21:44:00,
2013-10-10 17:54:00,76.0,48.0,-100.00,North,0,3.0,-999.0,37,-99.99,,,-99.99,390.920013,,2013-10-10 21:54:00,
2013-10-10 18:00:00,74.0,51.0,-100.00,NNE,22,4.0,-999.0,44,-99.99,,,-99.99,203.000000,,2013-10-10 22:00:00,
2013-10-10 18:43:00,74.0,51.0,-100.00,NNE,22,4.0,-999.0,44,-99.99,,,-99.99,203.000000,,2013-10-10 22:43:00,
2013-10-10 18:53:00,74.0,51.0,-100.00,NNE,22,4.0,-999.0,44,-99.99,,,-99.99,203.000000,,2013-10-10 22:53:00,
2013-10-10 19:00:00,70.0,51.0,-100.00,NNE,22,2.0,-999.0,52,-99.99,,,-99.99,74.239998,,2013-10-10 23:00:00,
2013-10-10 19:43:00,70.0,51.0,-100.00,NNE,22,2.0,-999.0,52,-99.99,,,-99.99,74.239998,,2013-10-10 23:43:00,
2013-10-10 19:53:00,70.0,51.0,-100.00,NNE,22,2.0,-999.0,52,-99.99,,,-99.99,74.239998,,2013-10-10 23:53:00,
2013-10-10 20:00:00,61.0,51.0,-100.00,ENE,67,1.0,-999.0,70,-99.99,,,-99.99,2.320000,,2013-10-11 00:00:00,
2013-10-10 20:42:00,61.0,51.0,-100.00,ENE,67,1.0,-999.0,70,-99.99,,,-99.99,2.320000,,2013-10-11 00:42:00,
2013-10-10 20:52:00,61.0,51.0,-100.00,ENE,67,1.0,-999.0,70,-99.99,,,-99.99,2.320000,,2013-10-11 00:52:00,
2013-10-10 21:00:00,58.0,51.0,-100.00,ESE,112,1.0,-999.0,77,-99.99,,,-99.99,0.000000,,2013-10-11 01:00:00,
2013-10-10 21:42:00,58.0,51.0,-100.00,ESE,112,1.0,-999.0,77,-99.99,,,-99.99,0.000000,,2013-10-11 01:42:00,
2013-10-10 21:52:00,58.0,51.0,-100.00,ESE,112,1.0,-999.0,77,-99.99,,,-99.99,0.000000,,2013-10-11 01:52:00,
2013-10-10 22:00:00,56.0,51.0,-100.00,ESE,112,1.0,-999.0,83,-99.99,,,-99.99,0.000000,,2013-10-11 02:00:00,
2013-10-10 22:42:00,56.0,51.0,-100.00,ESE,112,1.0,-999.0,83,-99.99,,,-99.99,0.000000,,2013-10-11 02:42:00,
2013-10-10 22:52:00,56.0,51.0,-100.00,ESE,112,1.0,-999.0,83,-99.99,,,-99.99,0.000000,,2013-10-11 02:52:00,
2013-10-10 23:00:00,52.0,49.0,-100.00,ENE,67,1.0,-999.0,87,-99.99,,,-99.99,0.000000,,2013-10-11 03:00:00,
2013-10-10 23:45:00,52.0,49.0,-100.00,ENE,67,1.0,-999.0,87,-99.99,,,-99.99,0.000000,,2013-10-11 03:45:00,
2013-10-10 23:54:00,52.0,49.0,-100.00,ENE,67,1.0,-999.0,87,-99.99,,,-99.99,0.000000,,2013-10-11 03:54:00,